Time;durP1;ratioP1;P1;durP2;ratioP2;P2;SDS_P1;SDS_P2;PMS_P1;PMS_P2;Temp;Humidity;BMP_temperature;BMP_pressure;BME280_temperature;BME280_humidity;BME280_pressure;Samples;Min_cycle;Max_cycle;Signal;HPM_P1;HPM_P2
2022/04/13 00:00:56;;;;;;;;;;;;;;;;;;6172878;23;19920;-87
2022/04/13 00:03:23;;;;;;;;;;;;;;;;;;6200427;23;19920;-86
2022/04/13 00:05:50;;;;;;;;;;;;;;;;;;6199120;23;20307;-87
2022/04/13 00:08:18;;;;;;;;;;;;;;;;;;6203790;23;19999;-86
2022/04/13 00:10:45;;;;;;;;;;;;;;;;;;6202187;23;19966;-87
2022/04/13 00:13:13;;;;;;;;;;;;;;;;;;6204971;23;19962;-87
2022/04/13 00:15:41;;;;;;;;;;;;;;;;;;6203873;23;19923;-87
2022/04/13 00:18:08;;;;;;;;;;;;;;;;;;6202784;23;19920;-87
2022/04/13 00:20:36;;;;;;;;;;;;;;;;;;6205656;23;19920;-86
2022/04/13 00:23:03;;;;;;;;;;;;;;;;;;6201721;23;19916;-87
2022/04/13 00:25:31;;;;;;;;;;;;;;;;;;6205364;23;19920;-86
2022/04/13 00:27:57;;;;;;;;;;;;;;;;;;6203651;23;19920;-86
2022/04/13 00:30:24;;;;;;;;;;;;;;;;;;6178745;23;19920;-87
2022/04/13 00:32:52;;;;;;;;;;;;;;;;;;6203792;23;19919;-87
2022/04/13 00:35:19;;;;;;;;;;;;;;;;;;6206877;23;19962;-87
2022/04/13 00:37:46;;;;;;;;;;;;;;;;;;6203683;23;19920;-86
2022/04/13 00:40:16;;;;;;;;;;;;;;;;;;6206206;23;20002;-86
2022/04/13 00:42:45;;;;;;;;;;;;;;;;;;6202128;23;20244;-86
2022/04/13 00:45:11;;;;;;;;;;;;;;;;;;6204570;23;19989;-86
2022/04/13 00:47:39;;;;;;;;;;;;;;;;;;6203707;23;20280;-86
2022/04/13 00:50:07;;;;;;;;;;;;;;;;;;6225364;23;19924;-86
2022/04/13 00:52:34;;;;;;;;;;;;;;;;;;6208122;23;19915;-86
2022/04/13 00:55:02;;;;;;;;;;;;;;;;;;6204691;23;20401;-86
2022/04/13 00:57:29;;;;;;;;;;;;;;;;;;6236225;23;19947;-86
2022/04/13 00:59:56;;;;;;;;;;;;;;;;;;6204530;23;19926;-86
2022/04/13 01:02:23;;;;;;;;;;;;;;;;;;6209469;23;19920;-86
2022/04/13 01:04:51;;;;;;;;;;;;;;;;;;6206638;23;19946;-86
2022/04/13 01:07:32;;;;;;;;;;;;;;;;;;6180430;23;20295;-86
2022/04/13 01:10:01;;;;;;;;;;;;;;;;;;6199533;23;19924;-86
2022/04/13 01:12:42;;;;;;;;;;;;;;;;;;6172651;23;19991;-87
2022/04/13 01:15:12;;;;;;;;;;;;;;;;;;6119847;23;19992;-87
2022/04/13 01:17:40;;;;;;;;;;;;;;;;;;6121246;23;19927;-87
2022/04/13 01:20:07;;;;;;;;;;;;;;;;;;6169546;23;19920;-87
2022/04/13 01:22:34;;;;;;;;;;;;;;;;;;6172298;23;19920;-86
2022/04/13 01:25:02;;;;;;;;;;;;;;;;;;6121948;23;19936;-86
2022/04/13 01:27:29;;;;;;;;;;;;;;;;;;6174376;23;19916;-86
2022/04/13 01:29:56;;;;;;;;;;;;;;;;;;6121961;23;19962;-86
2022/04/13 01:32:23;;;;;;;;;;;;;;;;;;6173240;23;19950;-86
2022/04/13 01:34:51;;;;;;;;;;;;;;;;;;6170752;23;19920;-86
2022/04/13 01:37:37;;;;;;;;;;;;;;;;;;6149637;23;20411;-86
2022/04/13 01:40:04;;;;;;;;;;;;;;;;;;6169682;23;19920;-86
2022/04/13 01:42:32;;;;;;;;;;;;;;;;;;6171731;23;20337;-86
2022/04/13 01:44:59;;;;;;;;;;;;;;;;;;6233181;23;20249;-86
2022/04/13 01:47:26;;;;;;;;;;;;;;;;;;6208803;23;19947;-87
2022/04/13 01:49:54;;;;;;;;;;;;;;;;;;6175121;23;19989;-87
2022/04/13 01:52:20;;;;;;;;;;;;;;;;;;6203668;23;20738;-86
2022/04/13 01:54:47;;;;;;;;;;;;;;;;;;6177652;23;19951;-86
2022/04/13 01:57:14;;;;;;;;;;;;;;;;;;6204517;23;19916;-86
2022/04/13 01:59:42;;;;;;;;;;;;;;;;;;6202566;23;20363;-86
2022/04/13 02:02:12;;;;;;;;;;;;;;;;;;6202712;23;19931;-86
2022/04/13 02:04:40;;;;;;;;;;;;;;;;;;6204193;23;19960;-86
2022/04/13 02:07:07;;;;;;;;;;;;;;;;;;6199954;23;19927;-86
2022/04/13 02:09:33;;;;;;;;;;;;;;;;;;6203808;23;19923;-86
2022/04/13 02:12:01;;;;;;;;;;;;;;;;;;6199717;23;19919;-86
2022/04/13 02:14:28;;;;;;;;;;;;;;;;;;6203252;23;20316;-86
2022/04/13 02:16:55;;;;;;;;;;;;;;;;;;6200529;23;19919;-86
2022/04/13 02:19:23;;;;;;;;;;;;;;;;;;6205395;23;19923;-86
2022/04/13 02:21:53;;;;;;;;;;;;;;;;;;6199600;23;20357;-86
2022/04/13 02:24:20;;;;;;;;;;;;;;;;;;6205266;23;19923;-86
2022/04/13 02:27:09;;;;;;;;;;;;;;;;;;6136760;23;19921;-86
2022/04/13 02:29:37;;;;;;;;;;;;;;;;;;6140454;23;19927;-86
2022/04/13 02:32:05;;;;;;;;;;;;;;;;;;6136313;23;19987;-87
2022/04/13 02:34:51;;;;;;;;;;;;;;;;;;6137889;23;20491;-86
2022/04/13 02:37:18;;;;;;;;;;;;;;;;;;6139684;23;20028;-86
2022/04/13 02:39:48;;;;;;;;;;;;;;;;;;6138430;23;19920;-86
2022/04/13 02:42:18;;;;;;;;;;;;;;;;;;6142159;23;20003;-86
2022/04/13 02:44:44;;;;;;;;;;;;;;;;;;6116439;23;19924;-86
2022/04/13 02:47:11;;;;;;;;;;;;;;;;;;6140357;23;19917;-86
2022/04/13 02:49:39;;;;;;;;;;;;;;;;;;6116395;23;19924;-86
2022/04/13 02:52:06;;;;;;;;;;;;;;;;;;6139595;23;19920;-86
2022/04/13 02:54:33;;;;;;;;;;;;;;;;;;6142229;23;19932;-86
2022/04/13 02:57:00;;;;;;;;;;;;;;;;;;6164095;23;19924;-86
2022/04/13 02:59:26;;;;;;;;;;;;;;;;;;6167844;23;19924;-86
2022/04/13 03:01:59;;;;;;;;;;;;;;;;;;6138492;23;19927;-86
2022/04/13 03:04:26;;;;;;;;;;;;;;;;;;6142257;23;19960;-86
2022/04/13 03:07:07;;;;;;;;;;;;;;;;;;6108662;23;19921;-86
2022/04/13 03:09:35;;;;;;;;;;;;;;;;;;6112593;23;20400;-86
2022/04/13 03:12:02;;;;;;;;;;;;;;;;;;6138049;23;19924;-86
2022/04/13 03:14:28;;;;;;;;;;;;;;;;;;6172939;23;19927;-86
2022/04/13 03:16:55;;;;;;;;;;;;;;;;;;6143616;23;19920;-86
2022/04/13 03:19:22;;;;;;;;;;;;;;;;;;6146667;23;19925;-86
2022/04/13 03:22:08;;;;;;;;;;;;;;;;;;6168190;23;20244;-86
2022/04/13 03:24:35;;;;;;;;;;;;;;;;;;6146051;23;19924;-86
2022/04/13 03:27:16;;;;;;;;;;;;;;;;;;6141923;23;20243;-86
2022/04/13 03:29:46;;;;;;;;;;;;;;;;;;6141680;23;19948;-86
2022/04/13 03:32:12;;;;;;;;;;;;;;;;;;6141243;23;19952;-87
2022/04/13 03:34:41;;;;;;;;;;;;;;;;;;6141214;23;20254;-86
2022/04/13 03:37:08;;;;;;;;;;;;;;;;;;6142630;23;20005;-86
2022/04/13 03:39:35;;;;;;;;;;;;;;;;;;6151124;23;19920;-86
2022/04/13 03:42:02;;;;;;;;;;;;;;;;;;6173172;23;19994;-86
2022/04/13 03:44:28;;;;;;;;;;;;;;;;;;6177444;23;19927;-86
2022/04/13 03:46:55;;;;;;;;;;;;;;;;;;6148868;23;19919;-87
2022/04/13 03:49:23;;;;;;;;;;;;;;;;;;6175315;23;19963;-87
2022/04/13 03:51:51;;;;;;;;;;;;;;;;;;6172004;23;20008;-86
2022/04/13 03:54:18;;;;;;;;;;;;;;;;;;6177054;23;19943;-86
2022/04/13 03:56:45;;;;;;;;;;;;;;;;;;6151520;23;19931;-87
2022/04/13 03:59:13;;;;;;;;;;;;;;;;;;6172404;23;19942;-86
2022/04/13 04:01:59;;;;;;;;;;;;;;;;;;6113633;23;19999;-86
2022/04/13 04:04:26;;;;;;;;;;;;;;;;;;6091474;23;20504;-86
2022/04/13 04:06:53;;;;;;;;;;;;;;;;;;6090126;23;19924;-86
2022/04/13 04:09:21;;;;;;;;;;;;;;;;;;6117227;23;19928;-86
2022/04/13 04:11:48;;;;;;;;;;;;;;;;;;6091860;23;20405;-87
2022/04/13 04:14:15;;;;;;;;;;;;;;;;;;6095046;23;20265;-86
2022/04/13 04:16:42;;;;;;;;;;;;;;;;;;6118094;23;19979;-86
2022/04/13 04:19:12;;;;;;;;;;;;;;;;;;6094005;23;19966;-86
2022/04/13 04:21:39;;;;;;;;;;;;;;;;;;6116516;23;20324;-87
2022/04/13 04:24:06;;;;;;;;;;;;;;;;;;6141988;23;20936;-86
2022/04/13 04:26:33;;;;;;;;;;;;;;;;;;6140648;23;19943;-87
2022/04/13 04:29:19;;;;;;;;;;;;;;;;;;6120978;23;19963;-86
2022/04/13 04:31:53;;;;;;;;;;;;;;;;;;6090455;23;19999;-86
2022/04/13 04:34:22;;;;;;;;;;;;;;;;;;6116889;23;19920;-86
2022/04/13 04:36:49;;;;;;;;;;;;;;;;;;6135419;23;19917;-86
2022/04/13 04:39:16;;;;;;;;;;;;;;;;;;6091399;23;20230;-86
2022/04/13 04:41:44;;;;;;;;;;;;;;;;;;6116152;23;19928;-86
2022/04/13 04:44:31;;;;;;;;;;;;;;;;;;6059721;23;19947;-86
2022/04/13 04:46:58;;;;;;;;;;;;;;;;;;6112537;23;19931;-87
2022/04/13 04:49:24;;;;;;;;;;;;;;;;;;6130831;23;19970;-86
2022/04/13 04:51:52;;;;;;;;;;;;;;;;;;6167839;23;20463;-86
2022/04/13 04:54:19;;;;;;;;;;;;;;;;;;6144762;23;19927;-87
2022/04/13 04:56:47;;;;;;;;;;;;;;;;;;6142703;23;19991;-87
2022/04/13 04:59:15;;;;;;;;;;;;;;;;;;6121785;23;19995;-87
2022/04/13 05:01:43;;;;;;;;;;;;;;;;;;6144457;23;20381;-87
2022/04/13 05:04:10;;;;;;;;;;;;;;;;;;6146078;23;19920;-86
2022/04/13 05:06:37;;;;;;;;;;;;;;;;;;6120227;23;19960;-86
2022/04/13 05:09:03;;;;;;;;;;;;;;;;;;6142814;23;20721;-86
2022/04/13 05:11:49;;;;;;;;;;;;;;;;;;6146747;23;19962;-87
2022/04/13 05:14:18;;;;;;;;;;;;;;;;;;6172854;23;19919;-86
2022/04/13 05:16:46;;;;;;;;;;;;;;;;;;6145054;23;19921;-87
2022/04/13 05:19:15;;;;;;;;;;;;;;;;;;6143743;23;19920;-87
2022/04/13 05:21:43;;;;;;;;;;;;;;;;;;6142398;23;20349;-86
2022/04/13 05:24:24;;;;;;;;;;;;;;;;;;6147999;23;19924;-86
2022/04/13 05:26:52;;;;;;;;;;;;;;;;;;6116760;23;19979;-86
2022/04/13 05:29:19;;;;;;;;;;;;;;;;;;6168998;23;19965;-86
2022/04/13 05:31:46;;;;;;;;;;;;;;;;;;6198183;23;19956;-86
2022/04/13 05:34:13;;;;;;;;;;;;;;;;;;6202415;23;20242;-86
2022/04/13 05:36:40;;;;;;;;;;;;;;;;;;6178019;23;19923;-86
2022/04/13 05:39:07;;;;;;;;;;;;;;;;;;6175285;23;20299;-86
2022/04/13 05:41:35;;;;;;;;;;;;;;;;;;6203851;23;19916;-86
2022/04/13 05:44:02;;;;;;;;;;;;;;;;;;6177191;23;19935;-86
2022/04/13 05:46:30;;;;;;;;;;;;;;;;;;6180284;23;20622;-86
2022/04/13 05:48:56;;;;;;;;;;;;;;;;;;6182580;23;20002;-86
2022/04/13 05:51:24;;;;;;;;;;;;;;;;;;6204501;23;19920;-85
2022/04/13 05:54:05;;;;;;;;;;;;;;;;;;6141290;23;19921;-86
2022/04/13 05:56:56;;;;;;;;;;;;;;;;;;6120052;23;20012;-86
2022/04/13 05:59:23;;;;;;;;;;;;;;;;;;6118098;23;19995;-86
2022/04/13 06:01:50;;;;;;;;;;;;;;;;;;6118351;23;19916;-86
2022/04/13 06:04:18;;;;;;;;;;;;;;;;;;6122032;23;20234;-86
2022/04/13 06:06:45;;;;;;;;;;;;;;;;;;6116262;23;20787;-86
2022/04/13 06:09:12;;;;;;;;;;;;;;;;;;6121674;23;19964;-86
2022/04/13 06:11:40;;;;;;;;;;;;;;;;;;6146743;23;19951;-85
2022/04/13 06:14:09;;;;;;;;;;;;;;;;;;6144726;23;19920;-86
2022/04/13 06:16:36;;;;;;;;;;;;;;;;;;6119430;23;19939;-86
2022/04/13 06:19:03;;;;;;;;;;;;;;;;;;6092482;23;20336;-86
2022/04/13 06:21:31;;;;;;;;;;;;;;;;;;6119955;23;20645;-86
2022/04/13 06:23:58;;;;;;;;;;;;;;;;;;6092466;23;19936;-86
2022/04/13 06:26:41;;;;;;;;;;;;;;;;;;6057796;23;19971;-85
2022/04/13 06:29:09;;;;;;;;;;;;;;;;;;6056711;23;19921;-85
2022/04/13 06:31:36;;;;;;;;;;;;;;;;;;6064530;23;19996;-85
2022/04/13 06:34:02;;;;;;;;;;;;;;;;;;6114348;23;20326;-85
2022/04/13 06:36:29;;;;;;;;;;;;;;;;;;6116220;23;20350;-86
2022/04/13 06:38:56;;;;;;;;;;;;;;;;;;6089756;23;19992;-86
2022/04/13 06:41:24;;;;;;;;;;;;;;;;;;6090918;23;19917;-86
2022/04/13 06:43:53;;;;;;;;;;;;;;;;;;6111372;23;19920;-86
2022/04/13 06:52:37;;;;;;;;;;;;;;;;;;6001718;23;20373;-85
2022/04/13 06:55:18;;;;;;;;;;;;;;;;;;6036257;23;20000;-85
2022/04/13 06:57:44;;;;;;;;;;;;;;;;;;6037126;23;19956;-85
2022/04/13 07:00:12;;;;;;;;;;;;;;;;;;6090109;23;20346;-84
2022/04/13 07:02:39;;;;;;;;;;;;;;;;;;6089905;23;20007;-85
2022/04/13 07:05:05;;;;;;;;;;;;;;;;;;6066098;23;19971;-84
2022/04/13 07:07:33;;;;;;;;;;;;;;;;;;6106046;23;19943;-85
2022/04/13 07:10:00;;;;;;;;;;;;;;;;;;6150149;23;19922;-85
2022/04/13 07:12:27;;;;;;;;;;;;;;;;;;6178984;23;19924;-85
2022/04/13 07:14:54;;;;;;;;;;;;;;;;;;6125480;23;19916;-85
2022/04/13 07:17:22;;;;;;;;;;;;;;;;;;6178454;23;20337;-84
2022/04/13 07:19:49;;;;;;;;;;;;;;;;;;6148993;23;20253;-85
2022/04/13 07:22:30;;;;;;;;;;;;;;;;;;6087053;23;20006;-85
2022/04/13 07:24:57;;;;;;;;;;;;;;;;;;6084730;23;20010;-85
2022/04/13 07:27:23;;;;;;;;;;;;;;;;;;6063023;23;19992;-84
2022/04/13 07:29:51;;;;;;;;;;;;;;;;;;6060447;23;19989;-85
2022/04/13 07:32:18;;;;;;;;;;;;;;;;;;6087437;23;20287;-85
2022/04/13 07:34:44;;;;;;;;;;;;;;;;;;6061950;23;19965;-85
2022/04/13 07:37:12;;;;;;;;;;;;;;;;;;6063846;23;19917;-85
2022/04/13 07:39:39;;;;;;;;;;;;;;;;;;6087821;23;20346;-85
2022/04/13 07:42:06;;;;;;;;;;;;;;;;;;6061683;23;19994;-85
2022/04/13 07:44:33;;;;;;;;;;;;;;;;;;6086927;23;20287;-85
2022/04/13 07:46:59;;;;;;;;;;;;;;;;;;6084781;23;20322;-86
2022/04/13 07:49:26;;;;;;;;;;;;;;;;;;6059724;23;19952;-84
2022/04/13 07:51:54;;;;;;;;;;;;;;;;;;6069414;23;19921;-85
2022/04/13 07:54:21;;;;;;;;;;;;;;;;;;6091245;23;20219;-85
2022/04/13 07:56:48;;;;;;;;;;;;;;;;;;6064939;23;20298;-85
2022/04/13 07:59:16;;;;;;;;;;;;;;;;;;6113075;23;19975;-85
2022/04/13 08:01:42;;;;;;;;;;;;;;;;;;6207775;23;20292;-85
2022/04/13 08:04:15;;;;;;;;;;;;;;;;;;6181672;23;20237;-84
2022/04/13 08:06:42;;;;;;;;;;;;;;;;;;6207175;23;19920;-85
2022/04/13 08:09:09;;;;;;;;;;;;;;;;;;6153997;23;20344;-84
2022/04/13 08:11:36;;;;;;;;;;;;;;;;;;6180758;23;19916;-85
2022/04/13 08:14:04;;;;;;;;;;;;;;;;;;6179000;23;19927;-84
2022/04/13 08:16:36;;;;;;;;;;;;;;;;;;6157580;23;19966;-85
2022/04/13 08:19:05;;;;;;;;;;;;;;;;;;6178450;23;19965;-84
2022/04/13 08:21:33;;;;;;;;;;;;;;;;;;6180809;23;19987;-85
2022/04/13 08:24:00;;;;;;;;;;;;;;;;;;6153997;23;19920;-86
2022/04/13 08:26:26;;;;;;;;;;;;;;;;;;6181829;23;19971;-85
2022/04/13 08:28:53;;;;;;;;;;;;;;;;;;6153310;23;19924;-86
2022/04/13 08:31:20;;;;;;;;;;;;;;;;;;6181197;23;19920;-86
2022/04/13 08:33:47;;;;;;;;;;;;;;;;;;6178618;23;19916;-85
2022/04/13 08:36:15;;;;;;;;;;;;;;;;;;6181176;23;20281;-86
2022/04/13 08:38:42;;;;;;;;;;;;;;;;;;6180885;23;20001;-85
2022/04/13 08:41:08;;;;;;;;;;;;;;;;;;6178628;23;19927;-86
2022/04/13 08:43:43;;;;;;;;;;;;;;;;;;6181297;23;19966;-86
2022/04/13 08:46:25;;;;;;;;;;;;;;;;;;6185387;23;20002;-85
2022/04/13 08:48:52;;;;;;;;;;;;;;;;;;6154764;23;19939;-86
2022/04/13 08:51:19;;;;;;;;;;;;;;;;;;6180787;23;19916;-86
2022/04/13 08:53:46;;;;;;;;;;;;;;;;;;6154349;23;19924;-86
2022/04/13 08:56:13;;;;;;;;;;;;;;;;;;6156855;23;20674;-86
2022/04/13 08:58:40;;;;;;;;;;;;;;;;;;6156724;23;19990;-85
2022/04/13 09:01:08;;;;;;;;;;;;;;;;;;6153655;23;19973;-85
2022/04/13 09:03:36;;;;;;;;;;;;;;;;;;6181607;23;19923;-85
2022/04/13 09:06:03;;;;;;;;;;;;;;;;;;6178878;23;19919;-85
2022/04/13 09:08:30;;;;;;;;;;;;;;;;;;6181816;23;20021;-85
2022/04/13 09:10:57;;;;;;;;;;;;;;;;;;6178695;23;19966;-85
2022/04/13 09:13:27;;;;;;;;;;;;;;;;;;6208573;23;19948;-85
2022/04/13 09:15:53;;;;;;;;;;;;;;;;;;6153164;23;20295;-85
2022/04/13 09:18:24;;;;;;;;;;;;;;;;;;6209215;23;19938;-85
2022/04/13 09:20:51;;;;;;;;;;;;;;;;;;6207476;23;19924;-85
2022/04/13 09:23:19;;;;;;;;;;;;;;;;;;6210312;23;20226;-86
2022/04/13 09:25:44;;;;;;;;;;;;;;;;;;6208067;23;19939;-85
2022/04/13 09:28:12;;;;;;;;;;;;;;;;;;6183176;23;19983;-85
2022/04/13 09:30:39;;;;;;;;;;;;;;;;;;6182336;23;19923;-85
2022/04/13 09:33:07;;;;;;;;;;;;;;;;;;6180727;23;19923;-86
2022/04/13 09:35:34;;;;;;;;;;;;;;;;;;6182523;23;19922;-85
2022/04/13 09:38:02;;;;;;;;;;;;;;;;;;6179628;23;20603;-85
2022/04/13 09:40:29;;;;;;;;;;;;;;;;;;6182119;23;19927;-85
2022/04/13 09:42:55;;;;;;;;;;;;;;;;;;6180616;23;19938;-86
2022/04/13 09:45:22;;;;;;;;;;;;;;;;;;6193830;23;19927;-86
2022/04/13 09:47:48;;;;;;;;;;;;;;;;;;6180157;23;19924;-85
2022/04/13 09:50:34;;;;;;;;;;;;;;;;;;6186186;23;19930;-86
2022/04/13 09:53:05;;;;;;;;;;;;;;;;;;6155129;23;19923;-85
2022/04/13 09:55:32;;;;;;;;;;;;;;;;;;6183302;23;19923;-86
2022/04/13 09:57:58;;;;;;;;;;;;;;;;;;6179930;23;19928;-86
2022/04/13 10:00:25;;;;;;;;;;;;;;;;;;6182114;23;19920;-86
2022/04/13 10:02:53;;;;;;;;;;;;;;;;;;6180191;23;19916;-86
2022/04/13 10:05:20;;;;;;;;;;;;;;;;;;6182828;23;19931;-86
2022/04/13 10:07:47;;;;;;;;;;;;;;;;;;6155705;23;20323;-86
2022/04/13 10:10:14;;;;;;;;;;;;;;;;;;6183993;23;19923;-85
2022/04/13 10:12:41;;;;;;;;;;;;;;;;;;6157372;23;19916;-86
2022/04/13 10:15:09;;;;;;;;;;;;;;;;;;6180460;23;19916;-87
2022/04/13 10:17:36;;;;;;;;;;;;;;;;;;6209709;23;19997;-86
2022/04/13 10:20:03;;;;;;;;;;;;;;;;;;6181101;23;20017;-87
2022/04/13 10:22:31;;;;;;;;;;;;;;;;;;6157223;23;19919;-86
2022/04/13 10:24:57;;;;;;;;;;;;;;;;;;6207074;23;20042;-86
2022/04/13 10:27:25;;;;;;;;;;;;;;;;;;6157985;23;19916;-86
2022/04/13 10:29:53;;;;;;;;;;;;;;;;;;6179736;23;20229;-86
2022/04/13 10:32:22;;;;;;;;;;;;;;;;;;6158792;23;19951;-86
2022/04/13 10:34:50;;;;;;;;;;;;;;;;;;6180314;23;19958;-86
2022/04/13 10:37:32;;;;;;;;;;;;;;;;;;6208595;23;20439;-86
2022/04/13 10:40:13;;;;;;;;;;;;;;;;;;6145014;23;19927;-86
2022/04/13 10:42:39;;;;;;;;;;;;;;;;;;6143155;23;19917;-86
2022/04/13 10:45:06;;;;;;;;;;;;;;;;;;6117463;23;19976;-86
2022/04/13 10:47:53;;;;;;;;;;;;;;;;;;6088425;23;20268;-86
2022/04/13 10:50:30;;;;;;;;;;;;;;;;;;6090003;23;19965;-86
2022/04/13 10:53:05;;;;;;;;;;;;;;;;;;6110606;23;19925;-86
2022/04/13 10:55:33;;;;;;;;;;;;;;;;;;6138982;23;19964;-86
2022/04/13 10:58:03;;;;;;;;;;;;;;;;;;6117289;23;19924;-86
2022/04/13 11:00:34;;;;;;;;;;;;;;;;;;6119856;23;20329;-86
2022/04/13 11:03:02;;;;;;;;;;;;;;;;;;6092220;23;19924;-86
2022/04/13 11:08:26;;;;;;;;;;;;;;;;;;6146069;23;19928;-86
2022/04/13 11:10:53;;;;;;;;;;;;;;;;;;6139160;23;19916;-86
2022/04/13 11:13:20;;;;;;;;;;;;;;;;;;6179929;23;20273;-86
2022/04/13 11:15:48;;;;;;;;;;;;;;;;;;6177349;23;19922;-87
2022/04/13 11:18:17;;;;;;;;;;;;;;;;;;6180406;23;20291;-86
2022/04/13 11:20:43;;;;;;;;;;;;;;;;;;6205799;23;19920;-86
2022/04/13 11:23:16;;;;;;;;;;;;;;;;;;6202441;23;19920;-86
2022/04/13 11:25:42;;;;;;;;;;;;;;;;;;6180306;23;19924;-86
2022/04/13 11:28:09;;;;;;;;;;;;;;;;;;6178112;23;19920;-86
2022/04/13 11:30:36;;;;;;;;;;;;;;;;;;6180971;23;19915;-87
2022/04/13 11:33:03;;;;;;;;;;;;;;;;;;6178741;23;20374;-87
2022/04/13 11:35:29;;;;;;;;;;;;;;;;;;6181075;23;19939;-86
2022/04/13 11:37:57;;;;;;;;;;;;;;;;;;6204859;23;19916;-86
2022/04/13 11:40:24;;;;;;;;;;;;;;;;;;6208998;23;19990;-87
2022/04/13 11:42:52;;;;;;;;;;;;;;;;;;6206005;23;19916;-86
2022/04/13 11:45:22;;;;;;;;;;;;;;;;;;6207027;23;19923;-87
2022/04/13 11:47:53;;;;;;;;;;;;;;;;;;6204876;23;20046;-87
2022/04/13 11:50:20;;;;;;;;;;;;;;;;;;6212074;23;19919;-86
2022/04/13 11:52:50;;;;;;;;;;;;;;;;;;6236337;23;19923;-87
2022/04/13 11:55:20;;;;;;;;;;;;;;;;;;6239199;23;19919;-86
2022/04/13 11:57:47;;;;;;;;;;;;;;;;;;6236183;23;19919;-87
2022/04/13 12:00:14;;;;;;;;;;;;;;;;;;6186078;23;20861;-86
2022/04/13 12:02:41;;;;;;;;;;;;;;;;;;6209835;23;20404;-86
2022/04/13 12:05:08;;;;;;;;;;;;;;;;;;6208517;23;19920;-86
2022/04/13 12:07:35;;;;;;;;;;;;;;;;;;6236882;23;19964;-86
2022/04/13 12:10:02;;;;;;;;;;;;;;;;;;6236345;23;19923;-87
2022/04/13 12:12:29;;;;;;;;;;;;;;;;;;6238621;23;19919;-87
2022/04/13 12:14:56;;;;;;;;;;;;;;;;;;6208667;23;19991;-87
2022/04/13 12:17:24;;;;;;;;;;;;;;;;;;6186090;23;19915;-88
2022/04/13 12:19:51;;;;;;;;;;;;;;;;;;6236358;23;19919;-87
2022/04/13 12:22:18;;;;;;;;;;;;;;;;;;6186132;23;19995;-88
2022/04/13 12:24:48;;;;;;;;;;;;;;;;;;6186201;23;19920;-88
2022/04/13 12:27:16;;;;;;;;;;;;;;;;;;6211914;23;19994;-89
2022/04/13 12:29:43;;;;;;;;;;;;;;;;;;6236350;23;19915;-87
2022/04/13 12:32:10;;;;;;;;;;;;;;;;;;6184354;23;19998;-87
2022/04/13 12:34:37;;;;;;;;;;;;;;;;;;6211426;23;19990;-87
2022/04/13 12:37:06;;;;;;;;;;;;;;;;;;6208545;23;19954;-86
2022/04/13 12:39:33;;;;;;;;;;;;;;;;;;6211320;23;20018;-86
2022/04/13 12:42:01;;;;;;;;;;;;;;;;;;6209407;23;19991;-87
2022/04/13 12:44:29;;;;;;;;;;;;;;;;;;6238517;23;20003;-86
2022/04/13 12:46:56;;;;;;;;;;;;;;;;;;6235783;23;19955;-86
2022/04/13 12:49:25;;;;;;;;;;;;;;;;;;6211469;23;20287;-86
2022/04/13 12:51:55;;;;;;;;;;;;;;;;;;6209827;23;20365;-86
2022/04/13 12:54:24;;;;;;;;;;;;;;;;;;6214345;23;19916;-86
2022/04/13 12:56:50;;;;;;;;;;;;;;;;;;6210537;23;20021;-86
2022/04/13 12:59:24;;;;;;;;;;;;;;;;;;6213303;23;20252;-86
2022/04/13 13:01:51;;;;;;;;;;;;;;;;;;6211106;23;20623;-86
2022/04/13 13:04:19;;;;;;;;;;;;;;;;;;6240845;23;19973;-86
2022/04/13 13:06:46;;;;;;;;;;;;;;;;;;6186450;23;19920;-86
2022/04/13 13:09:14;;;;;;;;;;;;;;;;;;6187560;23;19922;-86
2022/04/13 13:11:41;;;;;;;;;;;;;;;;;;6239749;23;20352;-86
2022/04/13 13:14:08;;;;;;;;;;;;;;;;;;6211659;23;19923;-86
2022/04/13 13:16:36;;;;;;;;;;;;;;;;;;6212211;23;19947;-86
2022/04/13 13:19:03;;;;;;;;;;;;;;;;;;6238792;23;19920;-86
2022/04/13 13:21:30;;;;;;;;;;;;;;;;;;6240278;23;20294;-86
2022/04/13 13:23:58;;;;;;;;;;;;;;;;;;6186161;23;19927;-86
2022/04/13 13:26:25;;;;;;;;;;;;;;;;;;6213792;23;19920;-86
2022/04/13 13:28:52;;;;;;;;;;;;;;;;;;6209392;23;19923;-86
2022/04/13 13:31:19;;;;;;;;;;;;;;;;;;6187538;23;19920;-86
2022/04/13 13:33:47;;;;;;;;;;;;;;;;;;6210634;23;20372;-86
2022/04/13 13:36:14;;;;;;;;;;;;;;;;;;6188800;23;19954;-86
2022/04/13 13:38:41;;;;;;;;;;;;;;;;;;6213093;23;19916;-86
2022/04/13 13:41:08;;;;;;;;;;;;;;;;;;6208143;23;19926;-86
2022/04/13 13:43:37;;;;;;;;;;;;;;;;;;6208300;23;19994;-86
2022/04/13 13:46:09;;;;;;;;;;;;;;;;;;6210889;23;19930;-86
2022/04/13 13:48:36;;;;;;;;;;;;;;;;;;6211142;23;19919;-86
2022/04/13 13:51:03;;;;;;;;;;;;;;;;;;6207759;23;19919;-87
2022/04/13 14:02:35;;;;;;;;;;;;;;;;;;6145970;23;19955;-87
2022/04/13 14:05:03;;;;;;;;;;;;;;;;;;6144245;23;20003;-86
2022/04/13 14:07:31;;;;;;;;;;;;;;;;;;6122035;23;19972;-86
2022/04/13 14:09:59;;;;;;;;;;;;;;;;;;6144567;23;19959;-86
2022/04/13 14:12:26;;;;;;;;;;;;;;;;;;6121620;23;20586;-86
2022/04/13 14:14:54;;;;;;;;;;;;;;;;;;6095319;23;19920;-86
2022/04/13 14:17:22;;;;;;;;;;;;;;;;;;6121168;23;20394;-87
2022/04/13 14:19:50;;;;;;;;;;;;;;;;;;6119153;23;20267;-87
2022/04/13 14:22:17;;;;;;;;;;;;;;;;;;6095508;23;20429;-87
2022/04/13 14:24:43;;;;;;;;;;;;;;;;;;6113919;23;19931;-87
2022/04/13 14:27:11;;;;;;;;;;;;;;;;;;6116457;23;20412;-87
2022/04/13 14:29:38;;;;;;;;;;;;;;;;;;6094011;23;19988;-87
2022/04/13 14:32:06;;;;;;;;;;;;;;;;;;6091604;23;20312;-87
2022/04/13 14:34:33;;;;;;;;;;;;;;;;;;6172325;23;19920;-87
2022/04/13 14:37:01;;;;;;;;;;;;;;;;;;6151043;23;19920;-87
2022/04/13 14:39:27;;;;;;;;;;;;;;;;;;6205132;23;19939;-87
2022/04/13 14:41:53;;;;;;;;;;;;;;;;;;6202028;23;19966;-87
2022/04/13 14:44:20;;;;;;;;;;;;;;;;;;6149531;23;19978;-88
2022/04/13 14:46:48;;;;;;;;;;;;;;;;;;6174360;23;19963;-88
2022/04/13 14:49:15;;;;;;;;;;;;;;;;;;6204250;23;19915;-86
2022/04/13 14:51:45;;;;;;;;;;;;;;;;;;6177882;23;20276;-87
2022/04/13 14:54:13;;;;;;;;;;;;;;;;;;6205658;23;19930;-86
2022/04/13 14:56:40;;;;;;;;;;;;;;;;;;6202562;23;20260;-86
2022/04/13 14:59:07;;;;;;;;;;;;;;;;;;6174602;23;19920;-86
2022/04/13 15:01:34;;;;;;;;;;;;;;;;;;6204895;23;19916;-87
2022/04/13 15:04:01;;;;;;;;;;;;;;;;;;6147781;23;19928;-86
2022/04/13 15:06:27;;;;;;;;;;;;;;;;;;6202556;23;20560;-87
2022/04/13 15:09:00;;;;;;;;;;;;;;;;;;6173691;23;19956;-87
2022/04/13 15:11:27;;;;;;;;;;;;;;;;;;6204964;23;19920;-87
2022/04/13 15:13:54;;;;;;;;;;;;;;;;;;6150535;23;19942;-87
2022/04/13 15:16:24;;;;;;;;;;;;;;;;;;6203443;23;19920;-87
2022/04/13 15:18:51;;;;;;;;;;;;;;;;;;6199484;23;19920;-86
2022/04/13 15:21:19;;;;;;;;;;;;;;;;;;6150263;23;19919;-87
2022/04/13 15:24:00;;;;;;;;;;;;;;;;;;6137958;23;20062;-87
2022/04/13 15:26:28;;;;;;;;;;;;;;;;;;6113393;23;20676;-88
2022/04/13 15:29:09;;;;;;;;;;;;;;;;;;6136101;23;19920;-88
2022/04/13 15:31:36;;;;;;;;;;;;;;;;;;6140236;23;19951;-87
2022/04/13 15:34:07;;;;;;;;;;;;;;;;;;6113967;23;21072;-87
2022/04/13 15:36:34;;;;;;;;;;;;;;;;;;6093275;23;19921;-86
2022/04/13 15:39:01;;;;;;;;;;;;;;;;;;6091921;23;19936;-87
2022/04/13 15:41:28;;;;;;;;;;;;;;;;;;6142129;23;20509;-86
2022/04/13 15:43:54;;;;;;;;;;;;;;;;;;6089567;23;19924;-86
2022/04/13 15:46:21;;;;;;;;;;;;;;;;;;6079668;23;19932;-88
2022/04/13 15:48:49;;;;;;;;;;;;;;;;;;6087696;23;20269;-89
2022/04/13 15:51:21;;;;;;;;;;;;;;;;;;6091525;23;21578;-88
2022/04/13 15:53:48;;;;;;;;;;;;;;;;;;6085969;23;20416;-87
2022/04/13 15:56:15;;;;;;;;;;;;;;;;;;6204409;23;19916;-87
2022/04/13 15:58:45;;;;;;;;;;;;;;;;;;6152029;23;19916;-87
2022/04/13 16:01:13;;;;;;;;;;;;;;;;;;6177370;23;19931;-87
2022/04/13 16:03:40;;;;;;;;;;;;;;;;;;6153112;23;19991;-87
2022/04/13 16:06:07;;;;;;;;;;;;;;;;;;6173514;23;20391;-88
2022/04/13 16:08:48;;;;;;;;;;;;;;;;;;6107968;23;19988;-87
2022/04/13 16:11:14;;;;;;;;;;;;;;;;;;6062952;23;20453;-87
2022/04/13 16:13:41;;;;;;;;;;;;;;;;;;6088048;23;19949;-87
2022/04/13 16:16:07;;;;;;;;;;;;;;;;;;6084043;23;19924;-87
2022/04/13 16:18:38;;;;;;;;;;;;;;;;;;6085791;23;19921;-87
2022/04/13 16:21:04;;;;;;;;;;;;;;;;;;6085109;23;20015;-87
2022/04/13 16:23:44;;;;;;;;;;;;;;;;;;6108157;23;20364;-87
2022/04/13 16:26:13;;;;;;;;;;;;;;;;;;6084643;23;19925;-88
2022/04/13 16:28:42;;;;;;;;;;;;;;;;;;6061479;23;20280;-88
2022/04/13 16:31:34;;;;;;;;;;;;;;;;;;6023497;23;19929;-88
2022/04/13 16:34:01;;;;;;;;;;;;;;;;;;5997289;23;19922;-87
2022/04/13 16:36:28;;;;;;;;;;;;;;;;;;6023234;23;19922;-87
2022/04/13 16:38:55;;;;;;;;;;;;;;;;;;6008065;23;19922;-88
2022/04/13 16:41:22;;;;;;;;;;;;;;;;;;6070324;23;19929;-87
2022/04/13 16:43:50;;;;;;;;;;;;;;;;;;6090586;23;19932;-87
2022/04/13 16:46:31;;;;;;;;;;;;;;;;;;6109204;23;19929;-88
2022/04/13 16:48:58;;;;;;;;;;;;;;;;;;6107358;23;19920;-87
2022/04/13 16:51:24;;;;;;;;;;;;;;;;;;6084993;23;20877;-86
2022/04/13 16:53:51;;;;;;;;;;;;;;;;;;6080861;23;19968;-86
2022/04/13 16:56:17;;;;;;;;;;;;;;;;;;6112958;23;20217;-87
2022/04/13 16:58:58;;;;;;;;;;;;;;;;;;6079344;23;19928;-88
2022/04/13 17:01:26;;;;;;;;;;;;;;;;;;6058523;23;20402;-87
2022/04/13 17:03:52;;;;;;;;;;;;;;;;;;6083611;23;19921;-87
2022/04/13 17:06:20;;;;;;;;;;;;;;;;;;6085994;23;19925;-88
2022/04/13 17:08:46;;;;;;;;;;;;;;;;;;6107601;23;19928;-88
2022/04/13 17:11:28;;;;;;;;;;;;;;;;;;6110306;23;19987;-87
2022/04/13 17:13:56;;;;;;;;;;;;;;;;;;6104885;23;19921;-88